createdAt,value
2023-01-13T00:05:01.303Z,9.40
2023-01-13T00:11:03.324Z,9.30
2023-01-13T00:17:05.204Z,9.40
2023-01-13T00:23:07.031Z,9.30
2023-01-13T00:29:08.898Z,9.30
2023-01-13T00:35:10.828Z,9.30
2023-01-13T00:41:15.506Z,9.30
2023-01-13T00:47:17.355Z,9.20
2023-01-13T00:53:20.631Z,9.30
2023-01-13T00:59:22.453Z,9.20
2023-01-13T01:05:24.387Z,9.20
2023-01-13T01:11:28.996Z,9.30
2023-01-13T01:17:30.933Z,9.20
2023-01-13T01:23:33.773Z,9.20
2023-01-13T01:29:35.626Z,9.20
2023-01-13T01:35:40.551Z,9.10
2023-01-13T01:42:02.365Z,9.10
2023-01-13T01:48:05.035Z,9.00
2023-01-13T01:54:09.532Z,8.90
2023-01-13T02:00:12.442Z,9.00
2023-01-13T02:06:14.971Z,8.90
2023-01-13T02:12:29.518Z,8.90
2023-01-13T02:18:43.294Z,8.80
2023-01-13T02:25:16.119Z,8.60
2023-01-13T02:31:36.966Z,8.70
2023-01-13T02:37:42.393Z,8.70
2023-01-13T02:44:03.687Z,8.60
2023-01-13T02:50:11.049Z,8.50
2023-01-13T02:56:16.533Z,8.70
2023-01-13T03:02:21.665Z,8.60
2023-01-13T03:08:46.736Z,8.60
2023-01-13T03:14:57.483Z,8.40
2023-01-13T03:21:17.971Z,8.30
2023-01-13T03:27:50.609Z,8.30
2023-01-13T03:33:58.812Z,8.30
2023-01-13T03:40:25.700Z,8.20
2023-01-13T03:46:38.617Z,8.00
2023-01-13T03:52:48.684Z,8.00
2023-01-13T03:58:53.939Z,8.00
2023-01-13T04:04:59.870Z,8.00
2023-01-13T04:11:05.160Z,8.00
2023-01-13T04:17:06.876Z,8.10
2023-01-13T04:23:09.184Z,8.10
2023-01-13T04:29:10.949Z,8.10
2023-01-13T04:35:12.700Z,8.00
2023-01-13T04:41:14.498Z,8.00
2023-01-13T04:47:16.203Z,8.20
2023-01-13T04:53:17.890Z,8.10
2023-01-13T04:59:19.630Z,8.10
2023-01-13T05:05:21.383Z,7.90
2023-01-13T05:11:41.959Z,7.90
2023-01-13T05:17:44.087Z,7.90
2023-01-13T05:24:04.410Z,7.90
2023-01-13T05:30:06.891Z,7.90
2023-01-13T05:36:09.061Z,7.80
2023-01-13T05:42:29.433Z,7.80
2023-01-13T05:48:36.168Z,7.80
2023-01-13T05:54:37.943Z,7.70
2023-01-13T06:00:41.775Z,7.60
2023-01-13T06:06:44.772Z,7.60
2023-01-13T06:12:46.488Z,7.50
2023-01-13T06:18:48.212Z,7.40
2023-01-13T06:24:53.566Z,7.40
2023-01-13T06:31:03.567Z,7.40
2023-01-13T06:37:05.924Z,7.40
2023-01-13T06:43:17.280Z,7.40
2023-01-13T06:49:21.487Z,7.40
2023-01-13T06:55:23.753Z,7.50
2023-01-13T07:01:25.663Z,7.40
2023-01-13T07:07:27.991Z,7.50
2023-01-13T07:13:48.457Z,7.60
2023-01-13T07:19:50.252Z,7.60
2023-01-13T07:25:51.995Z,7.70
2023-01-13T07:31:53.703Z,7.60
2023-01-13T07:37:55.406Z,7.60
2023-01-13T07:43:57.118Z,7.60
2023-01-13T07:49:58.862Z,7.60
2023-01-13T07:56:02.032Z,7.60
2023-01-13T08:02:04.092Z,7.60
2023-01-13T08:08:06.127Z,7.40
2023-01-13T08:14:07.928Z,7.50
2023-01-13T08:20:10.464Z,7.50
2023-01-13T08:26:15.081Z,7.60
2023-01-13T08:32:16.781Z,7.60
2023-01-13T08:38:18.815Z,7.50
2023-01-13T08:44:20.946Z,7.70
2023-01-13T08:50:22.763Z,7.70
2023-01-13T08:56:24.494Z,7.80
2023-01-13T09:02:26.602Z,7.80
2023-01-13T09:08:28.379Z,7.80
2023-01-13T09:14:33.811Z,7.90
2023-01-13T09:20:35.829Z,7.80
2023-01-13T09:26:37.987Z,7.80
2023-01-13T09:32:39.832Z,7.90
2023-01-13T09:38:41.610Z,7.80
2023-01-13T09:45:11.099Z,7.90
2023-01-13T09:51:24.529Z,7.90
2023-01-13T09:57:28.544Z,7.90
2023-01-13T10:03:32.124Z,8.00
2023-01-13T10:09:45.977Z,8.00
2023-01-13T10:16:10.706Z,8.00
2023-01-13T10:22:21.295Z,8.10
2023-01-13T10:28:24.044Z,8.00
2023-01-13T10:34:27.337Z,7.90
2023-01-13T10:40:29.068Z,7.90
2023-01-13T10:46:33.915Z,8.00
2023-01-13T10:52:41.471Z,8.00
2023-01-13T10:58:43.433Z,8.00
2023-01-13T11:05:25.033Z,8.10
2023-01-13T11:11:55.575Z,8.10
2023-01-13T11:18:05.032Z,8.10
2023-01-13T11:24:21.548Z,8.20
2023-01-13T11:30:43.012Z,8.20
2023-01-13T11:36:51.247Z,8.20
2023-01-13T11:43:07.163Z,8.30
2023-01-13T11:49:23.751Z,8.30
2023-01-13T11:56:15.443Z,8.40
2023-01-13T12:02:51.069Z,8.40
2023-01-13T12:09:29.529Z,8.30
2023-01-13T12:16:06.232Z,8.40
2023-01-13T12:22:21.579Z,8.30
2023-01-13T12:28:32.437Z,8.40
2023-01-13T12:34:55.325Z,8.40
2023-01-13T12:41:02.705Z,8.50
2023-01-13T12:47:04.617Z,8.50
2023-01-13T12:53:36.250Z,8.40
2023-01-13T12:59:38.030Z,8.40
2023-01-13T13:05:44.563Z,8.00
2023-01-13T13:11:58.350Z,7.90
2023-01-13T13:18:02.398Z,7.70
2023-01-13T13:24:05.172Z,7.70
2023-01-13T13:30:30.328Z,7.70
2023-01-13T13:36:59.786Z,7.80
2023-01-13T13:43:22.453Z,8.00
2023-01-13T13:49:42.361Z,8.00
2023-01-13T13:55:57.522Z,8.00
2023-01-13T14:02:03.539Z,8.10
2023-01-13T14:08:18.417Z,8.20
2023-01-13T14:14:21.080Z,8.20
2023-01-13T14:20:23.182Z,8.20
2023-01-13T14:26:30.767Z,8.10
2023-01-13T14:32:36.489Z,8.00
2023-01-13T14:38:38.534Z,7.90
2023-01-13T14:44:48.681Z,7.90
2023-01-13T14:50:50.554Z,7.90
2023-01-13T14:56:55.167Z,7.80
2023-01-13T15:02:56.879Z,8.00
2023-01-13T15:08:58.651Z,8.00
2023-01-13T15:15:00.900Z,7.90
2023-01-13T15:21:02.980Z,7.90
2023-01-13T15:27:16.733Z,7.80
2023-01-13T15:33:19.245Z,7.60
2023-01-13T15:39:21.055Z,7.60
2023-01-13T15:45:41.390Z,7.60
2023-01-13T15:51:43.226Z,7.60
2023-01-13T15:57:49.672Z,7.50
2023-01-13T16:03:52.265Z,7.50
2023-01-13T16:09:54.024Z,7.40
2023-01-13T16:15:56.812Z,7.40
2023-01-13T16:21:59.790Z,7.40
2023-01-13T16:28:01.646Z,7.30
2023-01-13T16:34:04.243Z,7.30
2023-01-13T16:40:31.059Z,7.30
2023-01-13T16:46:33.288Z,7.20
2023-01-13T16:52:35.071Z,7.10
2023-01-13T16:58:36.924Z,7.00
2023-01-13T17:04:40.202Z,6.90
2023-01-13T17:10:41.977Z,6.80
2023-01-13T17:16:43.934Z,6.80
2023-01-13T17:22:49.742Z,6.80
2023-01-13T17:28:56.635Z,6.80
2023-01-13T17:35:01.635Z,6.90
2023-01-13T17:41:04.403Z,6.90
2023-01-13T17:47:07.543Z,6.90
2023-01-13T17:53:09.376Z,7.00
2023-01-13T17:59:16.261Z,7.10
2023-01-13T18:05:18.317Z,7.10
2023-01-13T18:11:22.146Z,7.10
2023-01-13T18:17:24.085Z,7.10
2023-01-13T18:23:44.614Z,7.10
2023-01-13T18:29:47.143Z,7.10
2023-01-13T18:35:48.940Z,7.30
2023-01-13T18:42:09.471Z,7.30
2023-01-13T18:48:11.897Z,7.20
2023-01-13T18:54:13.823Z,7.20
2023-01-13T19:00:19.309Z,7.20
2023-01-13T19:06:21.458Z,7.20
2023-01-13T19:12:26.354Z,7.20
2023-01-13T19:18:28.550Z,7.20
2023-01-13T19:24:30.380Z,7.30
2023-01-13T19:30:32.124Z,7.30
2023-01-13T19:36:33.964Z,7.30
2023-01-13T19:42:54.685Z,7.50
2023-01-13T19:48:56.542Z,7.50
2023-01-13T19:54:58.540Z,7.50
2023-01-13T20:01:04.082Z,7.60
2023-01-13T20:07:07.707Z,7.50
2023-01-13T20:13:09.487Z,7.70
2023-01-13T20:19:11.258Z,7.60
2023-01-13T20:25:16.828Z,7.60
2023-01-13T20:31:18.864Z,7.50
2023-01-13T20:37:20.728Z,7.60
2023-01-13T20:43:22.531Z,7.50
2023-01-13T20:49:25.669Z,7.60
2023-01-13T20:55:27.470Z,7.50
2023-01-13T21:01:29.477Z,7.50
2023-01-13T21:07:31.545Z,7.50
2023-01-13T21:13:52.073Z,7.40
2023-01-13T21:19:53.902Z,7.30
2023-01-13T21:25:55.781Z,7.20
2023-01-13T21:31:57.739Z,7.00
2023-01-13T21:37:59.756Z,6.80
2023-01-13T21:44:20.127Z,6.70
2023-01-13T21:50:24.783Z,6.50
2023-01-13T21:56:27.024Z,6.70
2023-01-13T22:02:29.124Z,6.80
2023-01-13T22:08:32.814Z,6.80
2023-01-13T22:14:35.335Z,6.80
2023-01-13T22:20:37.146Z,6.90
2023-01-13T22:26:39.198Z,6.70
2023-01-13T22:32:41.540Z,6.60
2023-01-13T22:38:43.438Z,6.60
2023-01-13T22:44:45.177Z,6.70
2023-01-13T22:50:47.101Z,6.70
2023-01-13T22:56:48.907Z,6.70
2023-01-13T23:02:50.723Z,6.70
2023-01-13T23:08:53.361Z,6.70
2023-01-13T23:14:55.162Z,6.70
2023-01-13T23:20:56.981Z,6.70
2023-01-13T23:26:58.739Z,6.70
2023-01-13T23:33:00.543Z,6.70
2023-01-13T23:39:02.397Z,6.60
2023-01-13T23:45:04.496Z,6.60
2023-01-13T23:51:09.044Z,6.50
2023-01-13T23:57:10.923Z,6.60
